MA94 weather

Parker Heliport
Worcester, Massachusetts, United States

Public forecast

Using degrees Fahrenheit for public forecast. Weather courtesy of forecast.io.

METAR (pilot weather report)

Closest report is Worcester Regional Airport, 3.5 nm (6.4 km) W. Retrieved 2019/09/19 04:54 UTC (45 minutes ago):

KORH 190454Z 03005KT 10SM CLR 09/03 A3034 RMK AO2 SLP277 T00940028 401560067

TAF (pilot weather forecast)

Forecast is more than 12 hours old.

Closest forecast is Worcester Regional Airport, 3.5 nm (6.4 km) W. Retrieved 2019/09/18 00:22 UTC (1 day ago):

TAF KORH 182320Z 1900/1924 07006KT P6SM SKC FM190400 04004KT P6SM SKC FM190600 01005KT P6SM SKC FM192200 34004KT P6SM SKC FM192300 22003KT P6SM SKC